Latest Coastal Weather Observations for Yamba

IDN60701

Issued at 6:21 pm EST Tuesday 28 July 2015 (issued every 10 minutes, with the page automatically refreshed every 10 minutes)

About coastal observations | Map of coastal stations | Coastal observations for NSW | Marine services | Other Formats
Station Details ID: 058012 Name: YAMBA PILOT STATION Lat: -29.43 Lon: 153.36 Height: 27.4 m
Data from the previous 72 hours. | See also: Recent months at Yamba
Date/Time
EST
Temp

°C
Wind Pressure Rain
since 9am
mm
Weather Cloud Vis
km
Sea
Height
m
Swell
Dir
 
Speed
knots
Gust
knots
hPa Trend Height
m
Period
s
Dir
28/06:00pm 13.5 S 6 8 1030.3 - 0.0 - - - - - - -
28/05:30pm 13.8 S 6 8 1030.1 - 0.0 - - - - - - -
28/05:00pm 14.9 S 6 9 1029.9 - 0.0 - - - - - - -
28/04:30pm 15.5 SSE 7 12 1029.8 - 0.0 - - - - - - -
28/04:00pm 16.0 SSE 8 11 1029.6 - 0.0 - - - - - - -
28/03:30pm 16.3 SSE 8 13 1029.6 - 0.0 - - - - - - -
28/03:00pm 16.3 SSE 9 14 1029.6 - 0.0 - - - - - - -
28/02:30pm 16.3 SE 12 15 1029.7 - 0.0 - - - - - - -
28/02:00pm 16.7 SE 12 16 1029.7 - 0.0 - - - - - - -
28/01:30pm 16.8 SSE 9 13 1029.8 - 0.0 - - - - - - -
28/01:00pm 16.9 SE 12 15 1030.0 - 0.0 - - - - - - -
28/12:30pm 16.8 SSE 9 13 1030.3 - 0.0 - - - - - - -
28/12:00pm 16.9 SSE 10 15 1030.6 - 0.0 - - - - - - -
28/11:30am 16.4 S 7 11 1031.2 - 0.0 - - - - - - -
28/11:00am 15.3 SSW 6 11 1031.5 - 0.0 - - - - - - -
28/10:30am 14.6 SW 6 11 1031.6 - 0.0 - - - - - - -
28/10:00am 13.7 SW 6 10 1031.8 - 0.0 - - - - - - -
28/09:30am 12.6 SW 6 12 1031.7 - 0.0 - - - - - - -
28/09:00am 11.5 SW 6 10 1031.3 - 0.0 - - - - - - -
28/08:30am 9.9 SW 6 11 1031.1 - 0.0 - - - - - - -
28/08:00am 8.8 SW 6 11 1030.8 - 0.0 - - - - - - -
28/07:30am 8.0 SW 6 9 1030.5 - 0.0 - - - - - - -
28/07:00am 7.3 WSW 5 10 1030.3 - 0.0 - - - - - - -
28/06:30am 7.0 WSW 6 8 1030.0 - 0.0 - - - - - - -
28/06:00am 7.2 WSW 6 8 1029.5 - 0.0 - - - - - - -
28/05:30am 7.3 SW 4 6 1029.1 - 0.0 - - - - - - -
28/05:00am 7.8 SW 6 8 1028.9 - 0.0 - - - - - - -
28/04:30am 7.8 WSW 5 8 1028.6 - 0.0 - - - - - - -
28/04:00am 8.1 WSW 5 7 1028.3 - 0.0 - - - - - - -
28/03:30am 8.5 SW 6 10 1028.1 - 0.0 - - - - - - -
28/03:00am 8.8 SW 5 8 1028.1 - 0.0 - - - - - - -
28/02:30am 9.1 WSW 5 7 1028.0 - 0.0 - - - - - - -
28/02:00am 9.5 WSW 5 9 1027.9 - 0.0 - - - - - - -
28/01:30am 9.7 SW 5 8 1027.9 - 0.0 - - - - - - -
28/01:00am 10.1 SW 5 9 1028.0 - 0.0 - - - - - - -
28/12:30am 11.0 SW 5 9 1027.9 - 0.0 - - - - - - -
 
Date/Time
EST
Temp

°C
Wind Pressure Rain
since 9am
mm
Weather Cloud Vis
km
Sea
Height
m
Swell
Dir
 
Speed
knots
Gust
knots
hPa Trend Height
m
Period
s
Dir
27/11:30pm 11.3 SW 5 9 1027.6 - 0.0 - - - - - - -
27/11:00pm 12.6 SW 7 12 1027.6 - 0.0 - - - - - - -
27/10:30pm 12.9 SW 6 10 1027.4 - 0.0 - - - - - - -
27/10:00pm 13.5 SW 5 8 1027.4 - 0.0 - - - - - - -
27/09:30pm 13.7 SSW 5 7 1027.1 - 0.0 - - - - - - -
27/09:00pm 14.6 SW 5 7 1026.9 - 0.0 - - - - - - -
27/08:30pm 16.5 SSE 11 17 1026.6 - 0.0 - - - - - - -
27/08:00pm 16.3 SE 11 14 1026.1 - 0.0 - - - - - - -
27/07:30pm 16.1 SE 12 15 1025.7 - 0.0 - - - - - - -
27/07:00pm 16.2 SE 12 19 1025.2 - 0.0 - - - - - - -
27/06:30pm 16.0 SE 11 13 1024.7 - 0.0 - - - - - - -
27/06:00pm 16.0 SE 10 13 1024.4 - 0.0 - - - - - - -
27/05:30pm 16.0 SE 10 12 1024.0 - 0.0 - - - - - - -
27/05:00pm 16.1 SE 11 15 1023.6 - 0.0 - - - - - - -
27/04:30pm 16.3 SE 10 12 1023.3 - 0.0 - - - - - - -
27/04:00pm 16.9 SE 11 15 1023.0 - 0.0 - - - - - - -
27/03:30pm 17.3 SE 11 14 1022.7 - 0.0 - - - - - - -
27/03:00pm 17.6 SE 11 14 1022.5 - 0.0 - - - - - - -
27/02:30pm 17.9 SE 12 15 1022.4 - 0.0 - - - - - - -
27/02:00pm 18.1 SE 11 14 1022.4 - 0.0 - - - - - - -
27/01:30pm 18.6 SE 11 13 1022.6 - 0.0 - - - - - - -
27/01:00pm 19.2 S 3 6 1022.7 - 0.0 - - - - - - -
27/12:30pm 18.6 SW 4 7 1023.1 - 0.0 - - - - - - -
27/12:00pm 18.6 SW 4 8 1023.4 - 0.0 - - - - - - -
27/11:30am 18.4 SW 5 8 1023.8 - 0.0 - - - - - - -
27/11:00am 17.8 SW 5 8 1023.9 - 0.0 - - - - - - -
27/10:30am 17.2 SW 5 9 1024.1 - 0.0 - - - - - - -
27/10:00am 16.9 SW 6 12 1024.1 - 0.0 - - - - - - -
27/09:30am 16.8 SW 7 11 1024.2 - 0.0 - - - - - - -
27/09:00am 14.9 SW 6 9 1023.9 - 0.0 - - - - - - -
27/08:30am 15.8 SW 5 8 1023.7 - 0.0 - - - - - - -
27/08:00am 14.4 W 5 9 1023.4 - 0.0 - - - - - - -
27/07:30am 12.7 WSW 6 8 1023.1 - 0.0 - - - - - - -
27/07:00am 12.2 WSW 6 8 1022.7 - 0.0 - - - - - - -
27/06:30am 11.3 W 7 11 1022.4 - 0.0 - - - - - - -
27/06:00am 11.6 W 6 8 1022.1 - 0.0 - - - - - - -
27/05:30am 11.1 W 5 7 1021.8 - 0.0 - - - - - - -
27/05:00am 11.4 WNW 4 5 1021.3 - 0.0 - - - - - - -
27/04:30am 12.1 W 6 7 1021.2 - 0.0 - - - - - - -
27/04:00am 11.9 WNW 4 5 1021.2 - 0.0 - - - - - - -
27/03:30am 12.3 NW 3 5 1020.9 - 0.0 - - - - - - -
27/03:00am 12.5 NW 3 4 1020.9 - 0.0 - - - - - - -
27/02:30am 12.5 NW 3 4 1020.9 - 0.0 - - - - - - -
27/02:00am 12.6 NW 1 4 1020.6 - 0.0 - - - - - - -
27/01:30am 12.7 NNW 3 4 1020.6 - 0.0 - - - - - - -
27/01:00am 12.8 NW 4 5 1020.5 - 0.0 - - - - - - -
27/12:30am 13.0 NNW 4 6 1020.1 - 0.0 - - - - - - -
27/12:00am 13.5 NNW 2 4 1020.1 - 0.0 - - - - - - -
 
Date/Time
EST
Temp

°C
Wind Pressure Rain
since 9am
mm
Weather Cloud Vis
km
Sea
Height
m
Swell
Dir
 
Speed
knots
Gust
knots
hPa Trend Height
m
Period
s
Dir
26/11:30pm 13.9 N 2 4 1020.0 - 0.0 - - - - - - -
26/11:00pm 14.3 NW 4 6 1019.9 - 0.0 - - - - - - -
26/10:30pm 14.7 W 6 8 1019.8 - 0.0 - - - - - - -
26/10:00pm 15.4 W 6 9 1019.8 - 0.0 - - - - - - -
26/09:30pm 16.2 W 7 10 1019.6 - 0.0 - - - - - - -
26/09:00pm 16.4 W 9 12 1019.7 - 0.0 - - - - - - -
26/08:30pm 16.9 W 8 13 1019.6 - 0.0 - - - - - - -
26/08:00pm 16.8 W 6 9 1019.4 - 0.0 - - - - - - -
26/07:30pm 17.2 WNW 5 7 1019.1 - 0.0 - - - - - - -
26/07:00pm 17.8 W 6 8 1018.7 - 0.0 - - - - - - -
26/06:30pm 18.7 W 6 9 1017.9 - 0.0 - - - - - - -
26/06:00pm 19.1 W 8 11 1017.3 - 0.0 - - - - - - -
26/05:30pm 18.7 WNW 7 9 1017.1 - 0.0 - - - - - - -
26/05:00pm 19.6 NW 5 7 1016.8 - 0.0 - - - - - - -
26/04:30pm 20.6 NW 6 9 1016.4 - 0.0 - - - - - - -
26/04:00pm 22.0 N 3 5 1016.2 - 0.0 - - - - - - -
26/03:30pm 20.7 NW 4 5 1016.3 - 0.0 - - - - - - -
26/03:00pm 21.3 NW 5 8 1016.3 - 0.0 - - - - - - -
26/02:30pm 21.8 NNW 5 8 1016.3 - 0.0 - - - - - - -
26/02:00pm 23.1 NNW 6 9 1016.7 - 0.0 - - - - - - -
26/01:30pm 22.1 NNW 5 8 1016.7 - 0.0 - - - - - - -
26/01:00pm 22.8 NW 5 6 1016.8 - 0.0 - - - - - - -
26/12:30pm 20.7 NNW 4 6 1017.6 - 0.0 - - - - - - -
26/12:00pm 20.4 WNW 6 8 1018.6 - 0.0 - - - - - - -
26/11:30am 19.7 NW 5 8 1019.1 - 0.0 - - - - - - -
26/11:00am 18.2 NW 5 6 1019.1 - 0.0 - - - - - - -
26/10:30am 16.9 WSW 5 8 1020.3 - 0.0 - - - - - - -
26/10:00am 16.9 W 4 6 1020.9 - 0.0 - - - - - - -
26/09:30am 17.0 W 4 6 1021.2 - 0.0 - - - - - - -
26/09:00am 17.0 WNW 4 6 1020.8 - 0.0 - - - - - - -
26/08:30am 17.3 NW 4 6 1020.6 - 0.0 - - - - - - -
26/08:00am 16.0 NNW 3 4 1020.3 - 0.0 - - - - - - -
26/07:30am 15.1 WNW 4 6 1020.4 - 0.0 - - - - - - -
26/07:00am 14.7 W 5 6 1020.6 - 0.0 - - - - - - -
26/06:30am 14.6 WSW 5 6 1020.5 - 0.0 - - - - - - -
26/06:00am 14.7 W 5 6 1020.4 - 0.0 - - - - - - -
26/05:30am 14.6 WNW 4 5 1019.9 - 0.0 - - - - - - -
26/05:00am 15.0 WNW 3 4 1019.6 - 0.0 - - - - - - -
26/04:30am 15.3 WNW 4 6 1019.9 - 0.0 - - - - - - -
26/04:00am 15.2 WNW 5 6 1019.7 - 0.0 - - - - - - -
26/03:30am 15.3 SW 4 6 1019.7 - 0.0 - - - - - - -
26/03:00am 15.5 WNW 4 5 1019.8 - 0.0 - - - - - - -
26/02:30am 15.5 WNW 6 8 1020.5 - 0.0 - - - - - - -
26/02:00am 15.9 WSW 7 9 1020.3 - 0.0 - - - - - - -
26/01:30am 15.4 W 6 8 1020.9 - 0.0 - - - - - - -
26/01:00am 15.5 WNW 5 6 1020.1 - 0.0 - - - - - - -
26/12:30am 15.5 W 4 6 1020.3 - 0.0 - - - - - - -
26/12:00am 15.2 WNW 5 6 1020.4 - 0.0 - - - - - - -
 
Date/Time
EST
Temp

°C
Wind Pressure Rain
since 9am
mm
Weather Cloud Vis
km
Sea
Height
m
Swell
Dir
 
Speed
knots
Gust
knots
hPa Trend Height
m
Period
s
Dir
25/11:30pm 15.5 W 7 9 1020.8 - 0.0 - - - - - - -
25/11:00pm 15.4 WNW 7 9 1020.9 - 0.0 - - - - - - -
25/10:30pm 14.9 WNW 6 8 1021.2 - 0.0 - - - - - - -
25/10:00pm 14.8 W 6 8 1021.0 - 0.0 - - - - - - -
25/09:30pm 15.4 W 6 9 1020.4 - 0.0 - - - - - - -
25/09:00pm 15.7 WNW 7 10 1020.4 - 0.0 - - - - - - -
25/08:30pm 15.6 WNW 6 9 1020.8 - 0.0 - - - - - - -
25/08:00pm 16.2 NW 6 8 1020.6 - 0.0 - - - - - - -
25/07:30pm 16.3 NW 5 8 1020.6 - 0.0 - - - - - - -
25/07:00pm 16.8 NW 6 8 1020.2 - 0.0 - - - - - - -
25/06:30pm 17.1 NW 4 6 1019.8 - 0.0 - - - - - - -

Other Formats:

Comma delimited format used in spreadsheet applications
http://www.bom.gov.au/fwo/IDN60701/IDN60701.94589.axf

JavaScript Object Notation format (JSON) in row-major order
http://www.bom.gov.au/fwo/IDN60701/IDN60701.94589.json